sensor_id;sensor_type;location;lat;lon;timestamp;pressure;altitude;pressure_sealevel;temperature;humidity
77572;BME280;67214;47.454;18.966;2023-05-29T00:02:05;100173.79;;;13.33;64.53
77572;BME280;67214;47.454;18.966;2023-05-29T00:04:32;100166.52;;;13.35;64.41
77572;BME280;67214;47.454;18.966;2023-05-29T00:07:00;100168.33;;;13.35;64.79
77572;BME280;67214;47.454;18.966;2023-05-29T00:09:27;100166.22;;;13.38;64.73
77572;BME280;67214;47.454;18.966;2023-05-29T00:11:55;100164.53;;;13.37;64.08
77572;BME280;67214;47.454;18.966;2023-05-29T00:14:23;100169.17;;;13.35;64.66
77572;BME280;67214;47.454;18.966;2023-05-29T00:16:51;100160.47;;;13.33;64.55
77572;BME280;67214;47.454;18.966;2023-05-29T00:19:18;100164.95;;;13.33;64.16
77572;BME280;67214;47.454;18.966;2023-05-29T00:21:50;100161.27;;;13.20;64.62
77572;BME280;67214;47.454;18.966;2023-05-29T00:24:18;100157.27;;;13.20;64.86
77572;BME280;67214;47.454;18.966;2023-05-29T00:26:46;100168.27;;;13.31;64.98
77572;BME280;67214;47.454;18.966;2023-05-29T00:29:14;100173.59;;;13.31;64.79
77572;BME280;67214;47.454;18.966;2023-05-29T00:31:41;100172.39;;;13.29;65.13
77572;BME280;67214;47.454;18.966;2023-05-29T00:34:09;100199.02;;;13.29;65.30
77572;BME280;67214;47.454;18.966;2023-05-29T00:36:36;100192.04;;;13.28;65.70
77572;BME280;67214;47.454;18.966;2023-05-29T00:39:04;100192.59;;;13.32;65.32
77572;BME280;67214;47.454;18.966;2023-05-29T00:41:32;100194.19;;;13.29;65.33
77572;BME280;67214;47.454;18.966;2023-05-29T00:43:59;100193.56;;;13.31;66.08
77572;BME280;67214;47.454;18.966;2023-05-29T00:46:27;100187.69;;;13.27;66.21
77572;BME280;67214;47.454;18.966;2023-05-29T00:48:55;100183.89;;;13.30;66.18
77572;BME280;67214;47.454;18.966;2023-05-29T00:51:23;100181.71;;;13.29;65.77
77572;BME280;67214;47.454;18.966;2023-05-29T00:53:51;100178.98;;;13.35;65.40
77572;BME280;67214;47.454;18.966;2023-05-29T00:56:20;100178.43;;;13.31;65.68
77572;BME280;67214;47.454;18.966;2023-05-29T00:58:50;100174.27;;;13.33;65.77
77572;BME280;67214;47.454;18.966;2023-05-29T01:01:19;100165.18;;;13.35;65.48
77572;BME280;67214;47.454;18.966;2023-05-29T01:03:48;100161.88;;;13.37;65.29
77572;BME280;67214;47.454;18.966;2023-05-29T01:06:16;100169.66;;;13.35;65.47
77572;BME280;67214;47.454;18.966;2023-05-29T01:08:44;100157.09;;;13.41;65.34
77572;BME280;67214;47.454;18.966;2023-05-29T01:11:27;100158.17;;;13.44;65.13
77572;BME280;67214;47.454;18.966;2023-05-29T01:13:54;100162.66;;;13.43;64.94
77572;BME280;67214;47.454;18.966;2023-05-29T01:16:48;100159.06;;;13.29;65.20
77572;BME280;67214;47.454;18.966;2023-05-29T01:24:55;100169.53;;;13.27;65.62
77572;BME280;67214;47.454;18.966;2023-05-29T01:27:19;100165.39;;;13.19;66.36
77572;BME280;67214;47.454;18.966;2023-05-29T01:29:50;100168.67;;;13.17;66.86
77572;BME280;67214;47.454;18.966;2023-05-29T01:32:19;100168.84;;;13.10;67.11
77572;BME280;67214;47.454;18.966;2023-05-29T01:34:47;100169.34;;;12.99;67.04
77572;BME280;67214;47.454;18.966;2023-05-29T01:37:14;100160.92;;;12.94;67.22
77572;BME280;67214;47.454;18.966;2023-05-29T01:39:42;100151.05;;;12.91;66.57
77572;BME280;67214;47.454;18.966;2023-05-29T01:42:10;100157.50;;;12.98;66.43
77572;BME280;67214;47.454;18.966;2023-05-29T01:44:39;100152.81;;;12.96;66.88
77572;BME280;67214;47.454;18.966;2023-05-29T01:47:07;100160.20;;;12.92;66.62
77572;BME280;67214;47.454;18.966;2023-05-29T01:49:37;100153.84;;;12.89;66.41
77572;BME280;67214;47.454;18.966;2023-05-29T01:52:05;100147.47;;;12.86;66.48
77572;BME280;67214;47.454;18.966;2023-05-29T01:54:33;100142.84;;;12.79;66.78
77572;BME280;67214;47.454;18.966;2023-05-29T01:57:02;100144.58;;;12.84;66.80
77572;BME280;67214;47.454;18.966;2023-05-29T01:59:32;100144.50;;;12.80;67.21
77572;BME280;67214;47.454;18.966;2023-05-29T02:02:08;100131.14;;;12.85;67.27
77572;BME280;67214;47.454;18.966;2023-05-29T02:04:36;100142.98;;;12.96;67.13
77572;BME280;67214;47.454;18.966;2023-05-29T02:07:04;100142.17;;;12.96;66.89
77572;BME280;67214;47.454;18.966;2023-05-29T02:09:34;100142.17;;;12.96;66.71
77572;BME280;67214;47.454;18.966;2023-05-29T02:12:02;100128.06;;;12.90;67.31
77572;BME280;67214;47.454;18.966;2023-05-29T02:14:30;100138.44;;;12.83;67.76
77572;BME280;67214;47.454;18.966;2023-05-29T02:16:58;100138.08;;;12.82;67.85
77572;BME280;67214;47.454;18.966;2023-05-29T02:19:27;100125.67;;;12.77;68.48
77572;BME280;67214;47.454;18.966;2023-05-29T02:21:55;100133.50;;;12.69;68.65
77572;BME280;67214;47.454;18.966;2023-05-29T02:24:22;100133.55;;;12.64;68.88
77572;BME280;67214;47.454;18.966;2023-05-29T02:26:50;100131.69;;;12.70;68.30
77572;BME280;67214;47.454;18.966;2023-05-29T02:29:18;100132.53;;;12.70;68.58
77572;BME280;67214;47.454;18.966;2023-05-29T02:31:45;100133.70;;;12.72;68.58
77572;BME280;67214;47.454;18.966;2023-05-29T02:34:13;100126.16;;;12.67;69.00
77572;BME280;67214;47.454;18.966;2023-05-29T02:36:40;100136.93;;;12.66;69.06
77572;BME280;67214;47.454;18.966;2023-05-29T02:39:08;100130.36;;;12.70;68.97
77572;BME280;67214;47.454;18.966;2023-05-29T02:41:35;100124.06;;;12.71;68.53
77572;BME280;67214;47.454;18.966;2023-05-29T02:44:03;100115.72;;;12.70;68.67
77572;BME280;67214;47.454;18.966;2023-05-29T02:46:30;100118.43;;;12.64;69.04
77572;BME280;67214;47.454;18.966;2023-05-29T02:48:58;100115.85;;;12.58;69.45
77572;BME280;67214;47.454;18.966;2023-05-29T02:51:25;100120.68;;;12.69;68.75
77572;BME280;67214;47.454;18.966;2023-05-29T02:53:54;100116.92;;;12.71;68.44
77572;BME280;67214;47.454;18.966;2023-05-29T02:56:21;100118.30;;;12.66;69.11
77572;BME280;67214;47.454;18.966;2023-05-29T02:58:50;100115.77;;;12.54;69.79
77572;BME280;67214;47.454;18.966;2023-05-29T03:01:18;100115.89;;;12.53;70.15
77572;BME280;67214;47.454;18.966;2023-05-29T03:03:45;100113.44;;;12.55;69.38
77572;BME280;67214;47.454;18.966;2023-05-29T03:06:13;100113.75;;;12.62;69.07
77572;BME280;67214;47.454;18.966;2023-05-29T03:08:42;100117.02;;;12.60;69.72
77572;BME280;67214;47.454;18.966;2023-05-29T03:11:14;100120.53;;;12.61;69.69
77572;BME280;67214;47.454;18.966;2023-05-29T03:13:42;100118.10;;;12.63;70.01
77572;BME280;67214;47.454;18.966;2023-05-29T03:16:09;100105.61;;;12.54;70.14
77572;BME280;67214;47.454;18.966;2023-05-29T03:18:37;100117.43;;;12.46;70.58
77572;BME280;67214;47.454;18.966;2023-05-29T03:21:04;100123.92;;;12.47;69.94
77572;BME280;67214;47.454;18.966;2023-05-29T03:23:32;100120.98;;;12.41;69.36
77572;BME280;67214;47.454;18.966;2023-05-29T03:26:00;100120.85;;;12.42;69.23
77572;BME280;67214;47.454;18.966;2023-05-29T03:28:27;100125.08;;;12.54;69.04
77572;BME280;67214;47.454;18.966;2023-05-29T03:30:55;100114.44;;;12.54;69.61
77572;BME280;67214;47.454;18.966;2023-05-29T03:33:22;100125.08;;;12.54;69.94
77572;BME280;67214;47.454;18.966;2023-05-29T03:35:50;100125.84;;;12.61;69.44
77572;BME280;67214;47.454;18.966;2023-05-29T03:38:17;100120.45;;;12.56;69.23
77572;BME280;67214;47.454;18.966;2023-05-29T03:40:45;100132.02;;;12.61;69.71
77572;BME280;67214;47.454;18.966;2023-05-29T03:43:12;100138.05;;;12.63;69.21
77572;BME280;67214;47.454;18.966;2023-05-29T03:45:40;100145.87;;;12.65;69.54
77572;BME280;67214;47.454;18.966;2023-05-29T03:48:07;100144.06;;;12.65;69.61
77572;BME280;67214;47.454;18.966;2023-05-29T03:50:34;100145.59;;;12.68;69.83
77572;BME280;67214;47.454;18.966;2023-05-29T03:53:02;100145.75;;;12.76;69.64
77572;BME280;67214;47.454;18.966;2023-05-29T03:55:29;100157.66;;;12.72;70.17
77572;BME280;67214;47.454;18.966;2023-05-29T03:57:58;100153.61;;;12.77;70.00
77572;BME280;67214;47.454;18.966;2023-05-29T04:00:26;100154.12;;;12.86;69.98
77572;BME280;67214;47.454;18.966;2023-05-29T04:02:55;100154.33;;;12.89;69.92
77572;BME280;67214;47.454;18.966;2023-05-29T04:05:23;100155.55;;;13.00;70.23
77572;BME280;67214;47.454;18.966;2023-05-29T04:07:52;100149.47;;;13.13;69.40
77572;BME280;67214;47.454;18.966;2023-05-29T04:10:20;100152.83;;;13.25;69.15
77572;BME280;67214;47.454;18.966;2023-05-29T04:12:47;100153.97;;;13.32;68.77
77572;BME280;67214;47.454;18.966;2023-05-29T04:15:14;100140.00;;;13.34;69.17
77572;BME280;67214;47.454;18.966;2023-05-29T04:17:42;100146.73;;;13.38;69.12
77572;BME280;67214;47.454;18.966;2023-05-29T04:20:10;100156.05;;;13.47;69.05
77572;BME280;67214;47.454;18.966;2023-05-29T04:22:38;100153.30;;;13.53;68.65
77572;BME280;67214;47.454;18.966;2023-05-29T04:25:06;100156.25;;;13.60;68.33
77572;BME280;67214;47.454;18.966;2023-05-29T04:27:34;100150.14;;;13.63;68.36
77572;BME280;67214;47.454;18.966;2023-05-29T04:30:05;100153.71;;;13.68;67.76
77572;BME280;67214;47.454;18.966;2023-05-29T04:32:34;100151.78;;;13.74;67.98
77572;BME280;67214;47.454;18.966;2023-05-29T04:35:02;100148.56;;;13.80;68.00
77572;BME280;67214;47.454;18.966;2023-05-29T04:37:30;100154.25;;;13.81;67.67
77572;BME280;67214;47.454;18.966;2023-05-29T04:39:58;100151.48;;;13.86;68.00
77572;BME280;67214;47.454;18.966;2023-05-29T04:42:26;100155.82;;;13.97;67.90
77572;BME280;67214;47.454;18.966;2023-05-29T04:44:53;100159.28;;;14.07;67.71
77572;BME280;67214;47.454;18.966;2023-05-29T04:47:21;100151.69;;;14.12;67.51
77572;BME280;67214;47.454;18.966;2023-05-29T04:49:48;100153.81;;;14.22;67.48
77572;BME280;67214;47.454;18.966;2023-05-29T04:52:16;100161.78;;;14.32;67.28
77572;BME280;67214;47.454;18.966;2023-05-29T04:54:44;100161.12;;;14.43;67.38
77572;BME280;67214;47.454;18.966;2023-05-29T04:57:11;100143.25;;;14.54;66.90
77572;BME280;67214;47.454;18.966;2023-05-29T04:59:39;100159.58;;;14.68;66.14
77572;BME280;67214;47.454;18.966;2023-05-29T05:02:06;100158.12;;;14.87;65.07
77572;BME280;67214;47.454;18.966;2023-05-29T05:04:34;100148.58;;;14.99;64.91
77572;BME280;67214;47.454;18.966;2023-05-29T05:07:01;100164.23;;;15.11;65.02
77572;BME280;67214;47.454;18.966;2023-05-29T05:09:30;100160.16;;;15.25;64.45
77572;BME280;67214;47.454;18.966;2023-05-29T05:11:58;100162.09;;;15.36;64.27
77572;BME280;67214;47.454;18.966;2023-05-29T05:14:25;100166.30;;;15.53;63.73
77572;BME280;67214;47.454;18.966;2023-05-29T05:16:53;100168.44;;;15.71;62.55
77572;BME280;67214;47.454;18.966;2023-05-29T05:19:21;100165.67;;;15.80;62.93
77572;BME280;67214;47.454;18.966;2023-05-29T05:21:48;100160.20;;;15.90;63.26
77572;BME280;67214;47.454;18.966;2023-05-29T05:24:15;100159.70;;;16.16;62.34
77572;BME280;67214;47.454;18.966;2023-05-29T05:26:43;100161.45;;;16.30;62.18
77572;BME280;67214;47.454;18.966;2023-05-29T05:29:10;100174.39;;;16.42;62.31
77572;BME280;67214;47.454;18.966;2023-05-29T05:31:38;100161.11;;;16.58;61.11
77572;BME280;67214;47.454;18.966;2023-05-29T05:34:05;100165.96;;;16.67;60.75
77572;BME280;67214;47.454;18.966;2023-05-29T05:36:33;100161.48;;;16.80;60.74
77572;BME280;67214;47.454;18.966;2023-05-29T05:39:00;100159.53;;;16.94;60.50
77572;BME280;67214;47.454;18.966;2023-05-29T05:41:28;100167.60;;;17.14;60.23
77572;BME280;67214;47.454;18.966;2023-05-29T05:43:55;100165.78;;;17.35;60.35
77572;BME280;67214;47.454;18.966;2023-05-29T05:46:22;100159.73;;;17.53;59.60
77572;BME280;67214;47.454;18.966;2023-05-29T05:48:50;100147.19;;;17.74;58.80
77572;BME280;67214;47.454;18.966;2023-05-29T05:51:18;100162.59;;;17.96;58.09
77572;BME280;67214;47.454;18.966;2023-05-29T05:53:45;100156.19;;;18.13;58.18
77572;BME280;67214;47.454;18.966;2023-05-29T05:56:13;100161.31;;;18.31;58.04
77572;BME280;67214;47.454;18.966;2023-05-29T05:58:41;100156.90;;;18.50;56.96
77572;BME280;67214;47.454;18.966;2023-05-29T06:01:08;100160.19;;;18.68;56.82
77572;BME280;67214;47.454;18.966;2023-05-29T06:03:36;100162.75;;;18.92;55.55
77572;BME280;67214;47.454;18.966;2023-05-29T06:06:06;100158.92;;;19.14;56.16
77572;BME280;67214;47.454;18.966;2023-05-29T06:08:35;100161.30;;;19.35;55.60
77572;BME280;67214;47.454;18.966;2023-05-29T06:11:04;100152.55;;;19.60;53.43
77572;BME280;67214;47.454;18.966;2023-05-29T06:13:31;100162.01;;;19.89;51.68
77572;BME280;67214;47.454;18.966;2023-05-29T06:15:59;100169.16;;;20.16;52.04
77572;BME280;67214;47.454;18.966;2023-05-29T06:18:26;100163.02;;;20.40;50.96
77572;BME280;67214;47.454;18.966;2023-05-29T06:20:54;100170.01;;;20.60;50.01
77572;BME280;67214;47.454;18.966;2023-05-29T06:23:21;100173.44;;;20.69;48.45
77572;BME280;67214;47.454;18.966;2023-05-29T06:25:49;100172.60;;;20.94;49.68
77572;BME280;67214;47.454;18.966;2023-05-29T06:28:16;100179.50;;;21.07;48.92
77572;BME280;67214;47.454;18.966;2023-05-29T06:30:43;100177.34;;;21.27;47.95
77572;BME280;67214;47.454;18.966;2023-05-29T06:33:11;100175.56;;;21.45;47.80
77572;BME280;67214;47.454;18.966;2023-05-29T06:35:38;100176.06;;;21.66;48.07
77572;BME280;67214;47.454;18.966;2023-05-29T06:38:06;100167.20;;;21.89;47.19
77572;BME280;67214;47.454;18.966;2023-05-29T06:40:33;100175.11;;;22.12;48.10
77572;BME280;67214;47.454;18.966;2023-05-29T06:43:01;100177.59;;;22.41;45.83
77572;BME280;67214;47.454;18.966;2023-05-29T06:45:28;100180.08;;;22.66;46.14
77572;BME280;67214;47.454;18.966;2023-05-29T06:47:56;100178.55;;;22.85;44.52
77572;BME280;67214;47.454;18.966;2023-05-29T06:50:24;100179.73;;;23.00;44.68
77572;BME280;67214;47.454;18.966;2023-05-29T06:52:51;100180.76;;;22.99;44.65
77572;BME280;67214;47.454;18.966;2023-05-29T06:55:20;100182.42;;;22.93;44.89
77572;BME280;67214;47.454;18.966;2023-05-29T06:57:47;100187.89;;;23.13;45.46
77572;BME280;67214;47.454;18.966;2023-05-29T07:00:15;100182.29;;;23.14;43.76
77572;BME280;67214;47.454;18.966;2023-05-29T07:02:43;100191.02;;;23.10;44.96
77572;BME280;67214;47.454;18.966;2023-05-29T07:05:10;100182.72;;;23.18;45.08
77572;BME280;67214;47.454;18.966;2023-05-29T07:07:38;100189.29;;;23.26;44.10
77572;BME280;67214;47.454;18.966;2023-05-29T07:10:06;100180.05;;;23.31;44.08
77572;BME280;67214;47.454;18.966;2023-05-29T07:12:33;100189.33;;;23.39;44.09
77572;BME280;67214;47.454;18.966;2023-05-29T07:15:01;100184.70;;;23.64;44.62
77572;BME280;67214;47.454;18.966;2023-05-29T07:17:28;100186.16;;;23.59;45.11
77572;BME280;67214;47.454;18.966;2023-05-29T07:19:56;100196.66;;;23.58;44.10
77572;BME280;67214;47.454;18.966;2023-05-29T07:22:23;100190.42;;;23.78;44.26
77572;BME280;67214;47.454;18.966;2023-05-29T07:24:51;100188.45;;;23.76;43.34
77572;BME280;67214;47.454;18.966;2023-05-29T07:27:18;100195.22;;;23.95;45.09
77572;BME280;67214;47.454;18.966;2023-05-29T07:29:46;100191.27;;;24.04;43.42
77572;BME280;67214;47.454;18.966;2023-05-29T07:32:13;100202.51;;;24.08;44.17
77572;BME280;67214;47.454;18.966;2023-05-29T07:34:41;100205.73;;;24.07;43.67
77572;BME280;67214;47.454;18.966;2023-05-29T07:37:08;100214.30;;;23.91;43.64
77572;BME280;67214;47.454;18.966;2023-05-29T07:39:36;100218.73;;;23.69;44.47
77572;BME280;67214;47.454;18.966;2023-05-29T07:42:03;100220.48;;;23.52;44.18
77572;BME280;67214;47.454;18.966;2023-05-29T07:44:32;100228.64;;;23.72;44.58
77572;BME280;67214;47.454;18.966;2023-05-29T07:46:59;100226.47;;;23.98;45.95
77572;BME280;67214;47.454;18.966;2023-05-29T07:49:27;100223.46;;;24.03;45.06
77572;BME280;67214;47.454;18.966;2023-05-29T07:51:54;100233.77;;;23.97;43.74
77572;BME280;67214;47.454;18.966;2023-05-29T07:54:22;100238.05;;;23.96;45.77
77572;BME280;67214;47.454;18.966;2023-05-29T07:56:49;100233.57;;;24.12;43.29
77572;BME280;67214;47.454;18.966;2023-05-29T07:59:17;100227.55;;;24.17;43.95
77572;BME280;67214;47.454;18.966;2023-05-29T08:01:44;100235.43;;;24.38;44.52
77572;BME280;67214;47.454;18.966;2023-05-29T08:04:12;100238.08;;;24.16;44.85
77572;BME280;67214;47.454;18.966;2023-05-29T08:06:39;100230.25;;;24.23;44.47
77572;BME280;67214;47.454;18.966;2023-05-29T08:09:09;100233.45;;;24.09;44.87
77572;BME280;67214;47.454;18.966;2023-05-29T08:11:37;100235.45;;;24.18;44.90
77572;BME280;67214;47.454;18.966;2023-05-29T08:14:04;100231.20;;;24.20;45.03
77572;BME280;67214;47.454;18.966;2023-05-29T08:16:32;100224.40;;;24.26;44.86
77572;BME280;67214;47.454;18.966;2023-05-29T08:18:59;100223.79;;;24.24;44.64
77572;BME280;67214;47.454;18.966;2023-05-29T08:21:27;100222.55;;;24.20;45.87
77572;BME280;67214;47.454;18.966;2023-05-29T08:23:54;100219.59;;;24.35;45.17
77572;BME280;67214;47.454;18.966;2023-05-29T08:26:22;100215.00;;;24.35;45.61
77572;BME280;67214;47.454;18.966;2023-05-29T08:28:49;100223.03;;;24.39;44.68
77572;BME280;67214;47.454;18.966;2023-05-29T08:31:17;100223.64;;;24.48;45.83
77572;BME280;67214;47.454;18.966;2023-05-29T08:33:45;100226.53;;;24.60;45.39
77572;BME280;67214;47.454;18.966;2023-05-29T08:36:12;100216.28;;;24.68;45.17
77572;BME280;67214;47.454;18.966;2023-05-29T08:38:39;100217.16;;;24.56;44.98
77572;BME280;67214;47.454;18.966;2023-05-29T08:41:07;100220.09;;;24.47;44.19
77572;BME280;67214;47.454;18.966;2023-05-29T08:43:36;100228.14;;;24.25;44.58
77572;BME280;67214;47.454;18.966;2023-05-29T08:46:05;100221.25;;;24.09;44.65
77572;BME280;67214;47.454;18.966;2023-05-29T08:48:35;100218.66;;;24.25;45.56
77572;BME280;67214;47.454;18.966;2023-05-29T08:51:04;100217.92;;;24.14;45.22
77572;BME280;67214;47.454;18.966;2023-05-29T08:53:32;100214.49;;;24.03;45.56
77572;BME280;67214;47.454;18.966;2023-05-29T08:56:01;100215.00;;;24.35;46.10
77572;BME280;67214;47.454;18.966;2023-05-29T08:58:30;100205.31;;;24.72;42.93
77572;BME280;67214;47.454;18.966;2023-05-29T09:00:57;100215.09;;;24.80;43.21
77572;BME280;67214;47.454;18.966;2023-05-29T09:03:26;100207.71;;;24.71;43.36
77572;BME280;67214;47.454;18.966;2023-05-29T09:05:58;100207.71;;;24.71;43.36
77572;BME280;67214;47.454;18.966;2023-05-29T09:08:27;100211.50;;;24.64;43.57
77572;BME280;67214;47.454;18.966;2023-05-29T09:10:55;100207.42;;;24.64;43.39
77572;BME280;67214;47.454;18.966;2023-05-29T09:13:23;100213.02;;;24.33;43.62
77572;BME280;67214;47.454;18.966;2023-05-29T09:15:56;100219.08;;;24.71;44.23
77572;BME280;67214;47.454;18.966;2023-05-29T09:18:22;100216.13;;;24.92;43.13
77572;BME280;67214;47.454;18.966;2023-05-29T09:20:49;100228.05;;;25.07;44.09
77572;BME280;67214;47.454;18.966;2023-05-29T09:23:18;100222.34;;;24.99;43.10
77572;BME280;67214;47.454;18.966;2023-05-29T09:25:50;100211.25;;;24.85;43.47
77572;BME280;67214;47.454;18.966;2023-05-29T09:28:18;100215.49;;;24.83;43.46
77572;BME280;67214;47.454;18.966;2023-05-29T09:30:47;100210.78;;;24.94;42.98
77572;BME280;67214;47.454;18.966;2023-05-29T09:33:15;100212.13;;;24.94;42.73
77572;BME280;67214;47.454;18.966;2023-05-29T09:35:45;100213.92;;;24.98;42.73
77572;BME280;67214;47.454;18.966;2023-05-29T09:40:43;100217.66;;;25.19;42.38
77572;BME280;67214;47.454;18.966;2023-05-29T09:43:15;100215.89;;;25.22;42.44
77572;BME280;67214;47.454;18.966;2023-05-29T09:45:44;100211.88;;;25.47;42.60
77572;BME280;67214;47.454;18.966;2023-05-29T09:48:16;100199.70;;;25.56;42.80
77572;BME280;67214;47.454;18.966;2023-05-29T09:50:45;100205.93;;;25.79;41.79
77572;BME280;67214;47.454;18.966;2023-05-29T09:53:20;100224.86;;;26.01;42.01
77572;BME280;67214;47.454;18.966;2023-05-29T09:55:50;100224.86;;;26.01;42.01
77572;BME280;67214;47.454;18.966;2023-05-29T09:58:21;100222.33;;;25.66;42.28
77572;BME280;67214;47.454;18.966;2023-05-29T10:00:50;100224.02;;;25.60;43.18
77572;BME280;67214;47.454;18.966;2023-05-29T10:03:18;100224.91;;;25.48;43.15
77572;BME280;67214;47.454;18.966;2023-05-29T10:05:50;100234.97;;;25.47;43.46
77572;BME280;67214;47.454;18.966;2023-05-29T10:08:19;100234.72;;;25.33;43.40
77572;BME280;67214;47.454;18.966;2023-05-29T10:11:01;100242.47;;;25.29;43.85
77572;BME280;67214;47.454;18.966;2023-05-29T10:13:38;100234.89;;;25.22;44.01
77572;BME280;67214;47.454;18.966;2023-05-29T10:16:10;100236.97;;;25.20;44.08
77572;BME280;67214;47.454;18.966;2023-05-29T10:18:47;100240.97;;;25.18;44.41
77572;BME280;67214;47.454;18.966;2023-05-29T10:21:11;100245.84;;;25.40;44.39
77572;BME280;67214;47.454;18.966;2023-05-29T10:23:39;100221.77;;;25.35;44.08
77572;BME280;67214;47.454;18.966;2023-05-29T10:26:12;100239.48;;;25.22;44.73
77572;BME280;67214;47.454;18.966;2023-05-29T10:28:44;100237.66;;;25.09;44.28
77572;BME280;67214;47.454;18.966;2023-05-29T10:31:22;100242.45;;;25.07;44.87
77572;BME280;67214;47.454;18.966;2023-05-29T10:36:46;100224.66;;;24.95;44.57
77572;BME280;67214;47.454;18.966;2023-05-29T10:39:14;100233.44;;;24.97;44.17
77572;BME280;67214;47.454;18.966;2023-05-29T10:41:41;100233.44;;;24.97;44.17
77572;BME280;67214;47.454;18.966;2023-05-29T10:47:01;100205.75;;;24.69;45.16
77572;BME280;67214;47.454;18.966;2023-05-29T10:49:29;100232.73;;;24.80;45.88
77572;BME280;67214;47.454;18.966;2023-05-29T10:51:58;100225.34;;;24.71;45.60
77572;BME280;67214;47.454;18.966;2023-05-29T10:54:39;100219.48;;;24.74;46.28
77572;BME280;67214;47.454;18.966;2023-05-29T10:57:02;100219.48;;;24.74;46.28
77572;BME280;67214;47.454;18.966;2023-05-29T10:59:29;100215.08;;;24.51;45.97
77572;BME280;67214;47.454;18.966;2023-05-29T11:01:58;100223.61;;;24.54;46.20
77572;BME280;67214;47.454;18.966;2023-05-29T11:04:27;100211.38;;;24.32;46.09
77572;BME280;67214;47.454;18.966;2023-05-29T11:06:55;100227.42;;;24.07;47.49
77572;BME280;67214;47.454;18.966;2023-05-29T11:09:28;100225.00;;;23.89;47.29
77572;BME280;67214;47.454;18.966;2023-05-29T11:12:24;100222.72;;;23.86;47.14
77572;BME280;67214;47.454;18.966;2023-05-29T11:14:55;100220.33;;;23.87;47.74
77572;BME280;67214;47.454;18.966;2023-05-29T11:20:17;100227.41;;;23.75;48.19
77572;BME280;67214;47.454;18.966;2023-05-29T11:25:28;100213.97;;;23.34;48.15
77572;BME280;67214;47.454;18.966;2023-05-29T11:27:56;100221.73;;;23.20;49.42
77572;BME280;67214;47.454;18.966;2023-05-29T11:30:24;100208.52;;;23.14;49.68
77572;BME280;67214;47.454;18.966;2023-05-29T11:32:52;100208.98;;;23.07;50.07
77572;BME280;67214;47.454;18.966;2023-05-29T11:35:22;100213.68;;;23.02;49.85
77572;BME280;67214;47.454;18.966;2023-05-29T11:37:50;100221.47;;;23.01;49.22
77572;BME280;67214;47.454;18.966;2023-05-29T11:40:18;100220.69;;;23.14;48.79
77572;BME280;67214;47.454;18.966;2023-05-29T11:42:47;100215.94;;;23.23;49.13
77572;BME280;67214;47.454;18.966;2023-05-29T11:45:19;100211.33;;;23.23;48.80
77572;BME280;67214;47.454;18.966;2023-05-29T11:47:57;100207.59;;;23.24;49.47
77572;BME280;67214;47.454;18.966;2023-05-29T11:50:27;100209.07;;;23.27;49.59
77572;BME280;67214;47.454;18.966;2023-05-29T11:52:57;100196.80;;;23.37;48.94
77572;BME280;67214;47.454;18.966;2023-05-29T11:55:25;100189.87;;;23.45;48.96
77572;BME280;67214;47.454;18.966;2023-05-29T11:58:00;100186.03;;;23.50;48.13
77572;BME280;67214;47.454;18.966;2023-05-29T12:00:36;100176.66;;;23.66;46.84
77572;BME280;67214;47.454;18.966;2023-05-29T12:03:04;100180.11;;;23.71;47.69
77572;BME280;67214;47.454;18.966;2023-05-29T12:05:47;100169.57;;;23.85;47.36
77572;BME280;67214;47.454;18.966;2023-05-29T12:08:21;100157.89;;;23.97;48.10
77572;BME280;67214;47.454;18.966;2023-05-29T12:10:51;100152.56;;;24.33;47.80
77572;BME280;67214;47.454;18.966;2023-05-29T12:13:22;100160.28;;;24.58;46.91
77572;BME280;67214;47.454;18.966;2023-05-29T12:15:56;100155.65;;;24.72;47.28
77572;BME280;67214;47.454;18.966;2023-05-29T12:18:25;100159.13;;;24.63;45.40
77572;BME280;67214;47.454;18.966;2023-05-29T12:20:57;100150.03;;;24.67;45.79
77572;BME280;67214;47.454;18.966;2023-05-29T12:23:25;100150.55;;;24.66;46.89
77572;BME280;67214;47.454;18.966;2023-05-29T12:25:54;100155.13;;;24.72;47.23
77572;BME280;67214;47.454;18.966;2023-05-29T12:28:22;100149.91;;;24.99;46.31
77572;BME280;67214;47.454;18.966;2023-05-29T12:30:50;100145.95;;;25.18;44.87
77572;BME280;67214;47.454;18.966;2023-05-29T12:33:29;100146.56;;;25.51;44.35
77572;BME280;67214;47.454;18.966;2023-05-29T12:38:54;100140.19;;;25.64;44.41
77572;BME280;67214;47.454;18.966;2023-05-29T12:41:28;100139.11;;;25.24;44.17
77572;BME280;67214;47.454;18.966;2023-05-29T12:43:57;100139.11;;;25.24;44.17
77572;BME280;67214;47.454;18.966;2023-05-29T12:46:25;100132.84;;;25.08;41.93
77572;BME280;67214;47.454;18.966;2023-05-29T12:48:56;100122.45;;;25.86;41.69
77572;BME280;67214;47.454;18.966;2023-05-29T12:51:25;100125.94;;;26.36;41.22
77572;BME280;67214;47.454;18.966;2023-05-29T12:53:53;100132.77;;;26.11;40.16
77572;BME280;67214;47.454;18.966;2023-05-29T12:56:24;100129.63;;;26.69;39.96
77572;BME280;67214;47.454;18.966;2023-05-29T12:58:52;100125.36;;;26.91;39.17
77572;BME280;67214;47.454;18.966;2023-05-29T13:01:20;100127.59;;;27.03;39.02
77572;BME280;67214;47.454;18.966;2023-05-29T13:03:48;100126.27;;;26.76;39.59
77572;BME280;67214;47.454;18.966;2023-05-29T13:06:16;100127.21;;;26.52;39.77
77572;BME280;67214;47.454;18.966;2023-05-29T13:08:43;100111.94;;;26.51;39.20
77572;BME280;67214;47.454;18.966;2023-05-29T13:11:11;100123.41;;;26.62;38.51